sensor_id;sensor_type;location;lat;lon;timestamp;P1;durP1;ratioP1;P2;durP2;ratioP2
58384;SDS011;44185;47.844;8.966;2022-08-04T00:00:16;5.57;;;3.30;;
58384;SDS011;44185;47.844;8.966;2022-08-04T00:02:44;3.50;;;3.03;;
58384;SDS011;44185;47.844;8.966;2022-08-04T00:05:22;6.95;;;3.30;;
58384;SDS011;44185;47.844;8.966;2022-08-04T00:07:55;5.03;;;3.00;;
58384;SDS011;44185;47.844;8.966;2022-08-04T00:10:31;3.20;;;2.90;;
58384;SDS011;44185;47.844;8.966;2022-08-04T00:12:57;3.95;;;2.88;;
58384;SDS011;44185;47.844;8.966;2022-08-04T00:15:26;3.90;;;3.03;;
58384;SDS011;44185;47.844;8.966;2022-08-04T00:17:56;4.88;;;3.10;;
58384;SDS011;44185;47.844;8.966;2022-08-04T00:20:23;3.55;;;2.70;;
58384;SDS011;44185;47.844;8.966;2022-08-04T00:22:54;3.67;;;3.00;;
58384;SDS011;44185;47.844;8.966;2022-08-04T00:25:21;5.47;;;2.75;;
58384;SDS011;44185;47.844;8.966;2022-08-04T00:27:49;4.30;;;2.90;;
58384;SDS011;44185;47.844;8.966;2022-08-04T00:30:15;3.38;;;2.85;;
58384;SDS011;44185;47.844;8.966;2022-08-04T00:32:41;3.88;;;2.97;;
58384;SDS011;44185;47.844;8.966;2022-08-04T00:35:06;3.50;;;2.95;;
58384;SDS011;44185;47.844;8.966;2022-08-04T00:37:33;3.35;;;2.85;;
58384;SDS011;44185;47.844;8.966;2022-08-04T00:40:01;5.25;;;2.90;;
58384;SDS011;44185;47.844;8.966;2022-08-04T00:42:40;3.60;;;2.95;;
58384;SDS011;44185;47.844;8.966;2022-08-04T00:45:14;3.90;;;2.92;;
58384;SDS011;44185;47.844;8.966;2022-08-04T00:48:05;5.25;;;3.00;;
58384;SDS011;44185;47.844;8.966;2022-08-04T00:50:43;3.85;;;3.08;;
58384;SDS011;44185;47.844;8.966;2022-08-04T00:53:13;4.55;;;2.83;;
58384;SDS011;44185;47.844;8.966;2022-08-04T00:55:53;4.00;;;2.92;;
58384;SDS011;44185;47.844;8.966;2022-08-04T00:58:41;3.43;;;2.90;;
58384;SDS011;44185;47.844;8.966;2022-08-04T01:01:15;3.60;;;2.72;;
58384;SDS011;44185;47.844;8.966;2022-08-04T01:03:55;3.78;;;2.92;;
58384;SDS011;44185;47.844;8.966;2022-08-04T01:06:34;6.05;;;2.92;;
58384;SDS011;44185;47.844;8.966;2022-08-04T01:09:11;4.63;;;2.88;;
58384;SDS011;44185;47.844;8.966;2022-08-04T01:11:54;4.03;;;2.80;;
58384;SDS011;44185;47.844;8.966;2022-08-04T01:14:40;5.63;;;3.20;;
58384;SDS011;44185;47.844;8.966;2022-08-04T01:17:20;7.18;;;3.13;;
58384;SDS011;44185;47.844;8.966;2022-08-04T01:19:52;4.90;;;2.95;;
58384;SDS011;44185;47.844;8.966;2022-08-04T01:22:28;3.35;;;2.78;;
58384;SDS011;44185;47.844;8.966;2022-08-04T01:28:14;5.20;;;3.20;;
58384;SDS011;44185;47.844;8.966;2022-08-04T01:30:54;3.95;;;3.45;;
58384;SDS011;44185;47.844;8.966;2022-08-04T01:33:22;3.30;;;2.75;;
58384;SDS011;44185;47.844;8.966;2022-08-04T01:35:51;3.88;;;2.85;;
58384;SDS011;44185;47.844;8.966;2022-08-04T01:38:22;3.67;;;2.80;;
58384;SDS011;44185;47.844;8.966;2022-08-04T01:40:53;3.70;;;2.97;;
58384;SDS011;44185;47.844;8.966;2022-08-04T01:43:21;5.85;;;3.50;;
58384;SDS011;44185;47.844;8.966;2022-08-04T01:45:48;4.18;;;3.03;;
58384;SDS011;44185;47.844;8.966;2022-08-04T01:48:16;4.30;;;3.00;;
58384;SDS011;44185;47.844;8.966;2022-08-04T01:50:46;3.08;;;2.60;;
58384;SDS011;44185;47.844;8.966;2022-08-04T01:53:15;3.53;;;2.88;;
58384;SDS011;44185;47.844;8.966;2022-08-04T01:55:43;3.95;;;3.20;;
58384;SDS011;44185;47.844;8.966;2022-08-04T01:58:12;6.60;;;3.10;;
58384;SDS011;44185;47.844;8.966;2022-08-04T02:00:42;5.53;;;2.97;;
58384;SDS011;44185;47.844;8.966;2022-08-04T02:03:14;5.38;;;2.85;;
58384;SDS011;44185;47.844;8.966;2022-08-04T02:05:42;3.15;;;2.80;;
58384;SDS011;44185;47.844;8.966;2022-08-04T02:08:13;5.35;;;3.22;;
58384;SDS011;44185;47.844;8.966;2022-08-04T02:10:49;3.58;;;3.05;;
58384;SDS011;44185;47.844;8.966;2022-08-04T02:13:22;6.35;;;3.40;;
58384;SDS011;44185;47.844;8.966;2022-08-04T02:15:52;4.95;;;3.30;;
58384;SDS011;44185;47.844;8.966;2022-08-04T02:18:29;5.05;;;3.08;;
58384;SDS011;44185;47.844;8.966;2022-08-04T02:20:57;4.35;;;3.20;;
58384;SDS011;44185;47.844;8.966;2022-08-04T02:23:28;3.88;;;3.13;;
58384;SDS011;44185;47.844;8.966;2022-08-04T02:25:55;4.38;;;3.00;;
58384;SDS011;44185;47.844;8.966;2022-08-04T02:28:27;5.43;;;3.40;;
58384;SDS011;44185;47.844;8.966;2022-08-04T02:31:02;5.07;;;3.30;;
58384;SDS011;44185;47.844;8.966;2022-08-04T02:33:35;3.63;;;3.00;;
58384;SDS011;44185;47.844;8.966;2022-08-04T02:36:02;4.70;;;3.20;;
58384;SDS011;44185;47.844;8.966;2022-08-04T02:38:31;7.00;;;3.90;;
58384;SDS011;44185;47.844;8.966;2022-08-04T02:41:11;3.30;;;2.97;;
58384;SDS011;44185;47.844;8.966;2022-08-04T02:43:39;4.95;;;3.45;;
58384;SDS011;44185;47.844;8.966;2022-08-04T02:46:06;6.00;;;3.33;;
58384;SDS011;44185;47.844;8.966;2022-08-04T02:48:36;4.68;;;2.90;;
58384;SDS011;44185;47.844;8.966;2022-08-04T02:51:04;5.00;;;3.25;;
58384;SDS011;44185;47.844;8.966;2022-08-04T02:53:30;4.07;;;2.80;;
58384;SDS011;44185;47.844;8.966;2022-08-04T02:56:00;4.00;;;3.10;;
58384;SDS011;44185;47.844;8.966;2022-08-04T02:58:27;4.93;;;3.20;;
58384;SDS011;44185;47.844;8.966;2022-08-04T03:00:58;4.45;;;3.10;;
58384;SDS011;44185;47.844;8.966;2022-08-04T03:03:25;5.18;;;3.42;;
58384;SDS011;44185;47.844;8.966;2022-08-04T03:06:22;5.40;;;3.33;;
58384;SDS011;44185;47.844;8.966;2022-08-04T03:09:00;4.03;;;3.20;;
58384;SDS011;44185;47.844;8.966;2022-08-04T03:11:54;3.50;;;2.97;;
58384;SDS011;44185;47.844;8.966;2022-08-04T03:14:38;4.55;;;3.03;;
58384;SDS011;44185;47.844;8.966;2022-08-04T03:17:39;5.47;;;3.42;;
58384;SDS011;44185;47.844;8.966;2022-08-04T03:26:51;5.95;;;3.40;;
58384;SDS011;44185;47.844;8.966;2022-08-04T03:29:33;3.67;;;3.10;;
58384;SDS011;44185;47.844;8.966;2022-08-04T03:32:33;7.50;;;3.53;;
58384;SDS011;44185;47.844;8.966;2022-08-04T03:35:29;4.10;;;3.20;;
58384;SDS011;44185;47.844;8.966;2022-08-04T03:38:21;4.10;;;2.95;;
58384;SDS011;44185;47.844;8.966;2022-08-04T03:41:14;3.85;;;3.00;;
58384;SDS011;44185;47.844;8.966;2022-08-04T03:44:06;4.93;;;3.20;;
58384;SDS011;44185;47.844;8.966;2022-08-04T03:47:06;5.06;;;3.34;;
58384;SDS011;44185;47.844;8.966;2022-08-04T03:56:00;4.27;;;3.03;;
58384;SDS011;44185;47.844;8.966;2022-08-04T04:01:46;4.38;;;3.10;;
58384;SDS011;44185;47.844;8.966;2022-08-04T04:04:42;3.83;;;3.03;;
58384;SDS011;44185;47.844;8.966;2022-08-04T04:07:30;5.53;;;3.10;;
58384;SDS011;44185;47.844;8.966;2022-08-04T04:10:32;5.68;;;3.60;;
58384;SDS011;44185;47.844;8.966;2022-08-04T04:13:17;4.38;;;3.00;;
58384;SDS011;44185;47.844;8.966;2022-08-04T04:16:06;6.75;;;3.08;;
58384;SDS011;44185;47.844;8.966;2022-08-04T04:18:54;4.90;;;3.30;;
58384;SDS011;44185;47.844;8.966;2022-08-04T04:21:47;5.10;;;3.47;;
58384;SDS011;44185;47.844;8.966;2022-08-04T04:26:59;4.35;;;3.10;;
58384;SDS011;44185;47.844;8.966;2022-08-04T04:32:31;4.25;;;3.20;;
58384;SDS011;44185;47.844;8.966;2022-08-04T04:35:07;4.88;;;3.35;;
58384;SDS011;44185;47.844;8.966;2022-08-04T04:37:45;4.28;;;3.20;;
58384;SDS011;44185;47.844;8.966;2022-08-04T04:40:31;5.32;;;3.40;;
58384;SDS011;44185;47.844;8.966;2022-08-04T04:45:59;4.28;;;3.33;;
58384;SDS011;44185;47.844;8.966;2022-08-04T04:48:32;4.95;;;3.20;;
58384;SDS011;44185;47.844;8.966;2022-08-04T04:51:09;4.78;;;3.10;;
58384;SDS011;44185;47.844;8.966;2022-08-04T04:53:45;4.88;;;3.25;;
58384;SDS011;44185;47.844;8.966;2022-08-04T04:56:16;6.07;;;3.40;;
58384;SDS011;44185;47.844;8.966;2022-08-04T04:58:49;3.30;;;3.00;;
58384;SDS011;44185;47.844;8.966;2022-08-04T05:01:25;3.53;;;3.05;;
58384;SDS011;44185;47.844;8.966;2022-08-04T05:04:13;5.18;;;3.22;;
58384;SDS011;44185;47.844;8.966;2022-08-04T05:06:59;4.47;;;3.10;;
58384;SDS011;44185;47.844;8.966;2022-08-04T05:09:51;3.97;;;3.10;;
58384;SDS011;44185;47.844;8.966;2022-08-04T05:12:31;4.78;;;3.35;;
58384;SDS011;44185;47.844;8.966;2022-08-04T05:15:03;5.50;;;3.40;;
58384;SDS011;44185;47.844;8.966;2022-08-04T05:17:34;5.72;;;3.53;;
58384;SDS011;44185;47.844;8.966;2022-08-04T05:22:34;5.88;;;3.50;;
58384;SDS011;44185;47.844;8.966;2022-08-04T05:25:05;7.47;;;3.55;;
58384;SDS011;44185;47.844;8.966;2022-08-04T05:27:37;7.07;;;3.35;;
58384;SDS011;44185;47.844;8.966;2022-08-04T05:30:07;6.80;;;3.40;;
58384;SDS011;44185;47.844;8.966;2022-08-04T05:32:36;3.88;;;3.30;;
58384;SDS011;44185;47.844;8.966;2022-08-04T05:35:08;4.25;;;2.85;;
58384;SDS011;44185;47.844;8.966;2022-08-04T05:37:37;6.90;;;3.13;;
58384;SDS011;44185;47.844;8.966;2022-08-04T05:40:06;6.15;;;3.33;;
58384;SDS011;44185;47.844;8.966;2022-08-04T05:42:35;5.50;;;3.20;;
58384;SDS011;44185;47.844;8.966;2022-08-04T05:45:02;4.85;;;2.90;;
58384;SDS011;44185;47.844;8.966;2022-08-04T05:47:29;6.00;;;3.10;;
58384;SDS011;44185;47.844;8.966;2022-08-04T05:49:56;6.68;;;3.33;;
58384;SDS011;44185;47.844;8.966;2022-08-04T05:52:22;4.43;;;3.00;;
58384;SDS011;44185;47.844;8.966;2022-08-04T05:54:50;5.68;;;2.95;;
58384;SDS011;44185;47.844;8.966;2022-08-04T05:57:17;4.85;;;2.70;;
58384;SDS011;44185;47.844;8.966;2022-08-04T05:59:44;5.00;;;3.03;;
58384;SDS011;44185;47.844;8.966;2022-08-04T06:02:13;5.55;;;2.88;;
58384;SDS011;44185;47.844;8.966;2022-08-04T06:04:41;3.53;;;2.70;;
58384;SDS011;44185;47.844;8.966;2022-08-04T06:07:09;6.20;;;3.10;;
58384;SDS011;44185;47.844;8.966;2022-08-04T06:09:34;7.43;;;3.38;;
58384;SDS011;44185;47.844;8.966;2022-08-04T06:12:03;4.10;;;2.70;;
58384;SDS011;44185;47.844;8.966;2022-08-04T06:14:35;5.30;;;3.25;;
58384;SDS011;44185;47.844;8.966;2022-08-04T06:17:05;5.20;;;3.30;;
58384;SDS011;44185;47.844;8.966;2022-08-04T06:19:32;5.57;;;3.47;;
58384;SDS011;44185;47.844;8.966;2022-08-04T06:21:59;11.38;;;3.67;;
58384;SDS011;44185;47.844;8.966;2022-08-04T06:24:28;6.28;;;3.70;;
58384;SDS011;44185;47.844;8.966;2022-08-04T06:26:56;4.80;;;3.38;;
58384;SDS011;44185;47.844;8.966;2022-08-04T06:29:24;8.93;;;3.90;;
58384;SDS011;44185;47.844;8.966;2022-08-04T06:31:51;7.57;;;3.65;;
58384;SDS011;44185;47.844;8.966;2022-08-04T06:34:19;10.98;;;3.75;;
58384;SDS011;44185;47.844;8.966;2022-08-04T06:36:44;5.88;;;3.65;;
58384;SDS011;44185;47.844;8.966;2022-08-04T06:39:11;5.35;;;3.83;;
58384;SDS011;44185;47.844;8.966;2022-08-04T06:41:37;6.05;;;3.60;;
58384;SDS011;44185;47.844;8.966;2022-08-04T06:44:04;8.05;;;3.60;;
58384;SDS011;44185;47.844;8.966;2022-08-04T06:46:36;5.95;;;3.70;;
58384;SDS011;44185;47.844;8.966;2022-08-04T06:49:05;6.97;;;3.58;;
58384;SDS011;44185;47.844;8.966;2022-08-04T06:51:32;6.13;;;3.65;;
58384;SDS011;44185;47.844;8.966;2022-08-04T06:53:58;6.30;;;3.60;;
58384;SDS011;44185;47.844;8.966;2022-08-04T06:56:24;9.07;;;3.80;;
58384;SDS011;44185;47.844;8.966;2022-08-04T06:58:51;6.22;;;3.78;;
58384;SDS011;44185;47.844;8.966;2022-08-04T07:01:19;6.18;;;3.30;;
58384;SDS011;44185;47.844;8.966;2022-08-04T07:03:47;6.80;;;3.28;;
58384;SDS011;44185;47.844;8.966;2022-08-04T07:06:13;9.30;;;3.83;;
58384;SDS011;44185;47.844;8.966;2022-08-04T07:08:39;5.78;;;3.40;;
58384;SDS011;44185;47.844;8.966;2022-08-04T07:11:06;6.00;;;3.30;;
58384;SDS011;44185;47.844;8.966;2022-08-04T07:13:32;4.63;;;3.40;;
58384;SDS011;44185;47.844;8.966;2022-08-04T07:15:58;8.10;;;3.17;;
58384;SDS011;44185;47.844;8.966;2022-08-04T07:18:24;4.55;;;3.22;;
58384;SDS011;44185;47.844;8.966;2022-08-04T07:20:51;5.43;;;3.10;;
58384;SDS011;44185;47.844;8.966;2022-08-04T07:23:21;5.55;;;3.30;;
58384;SDS011;44185;47.844;8.966;2022-08-04T07:25:51;4.70;;;3.47;;
58384;SDS011;44185;47.844;8.966;2022-08-04T07:30:43;5.45;;;3.55;;
58384;SDS011;44185;47.844;8.966;2022-08-04T07:33:09;6.03;;;3.10;;
58384;SDS011;44185;47.844;8.966;2022-08-04T07:35:35;5.57;;;3.42;;
58384;SDS011;44185;47.844;8.966;2022-08-04T07:38:03;4.97;;;3.08;;
58384;SDS011;44185;47.844;8.966;2022-08-04T07:40:29;7.05;;;3.83;;
58384;SDS011;44185;47.844;8.966;2022-08-04T07:42:54;5.82;;;3.25;;
58384;SDS011;44185;47.844;8.966;2022-08-04T07:45:21;3.60;;;3.22;;
58384;SDS011;44185;47.844;8.966;2022-08-04T07:47:49;6.28;;;3.55;;
58384;SDS011;44185;47.844;8.966;2022-08-04T07:50:14;4.35;;;3.15;;
58384;SDS011;44185;47.844;8.966;2022-08-04T07:52:41;8.38;;;3.20;;
58384;SDS011;44185;47.844;8.966;2022-08-04T07:55:08;8.10;;;3.30;;
58384;SDS011;44185;47.844;8.966;2022-08-04T07:57:34;3.88;;;3.22;;
58384;SDS011;44185;47.844;8.966;2022-08-04T08:00:00;4.63;;;3.25;;
58384;SDS011;44185;47.844;8.966;2022-08-04T08:02:26;4.15;;;2.95;;
58384;SDS011;44185;47.844;8.966;2022-08-04T08:04:53;5.35;;;3.20;;
58384;SDS011;44185;47.844;8.966;2022-08-04T08:07:19;5.03;;;3.15;;
58384;SDS011;44185;47.844;8.966;2022-08-04T08:09:44;5.05;;;3.30;;
58384;SDS011;44185;47.844;8.966;2022-08-04T08:12:11;3.80;;;3.30;;
58384;SDS011;44185;47.844;8.966;2022-08-04T08:14:37;8.40;;;3.45;;
58384;SDS011;44185;47.844;8.966;2022-08-04T08:17:02;7.95;;;3.42;;
58384;SDS011;44185;47.844;8.966;2022-08-04T08:19:28;5.32;;;3.35;;
58384;SDS011;44185;47.844;8.966;2022-08-04T08:21:54;5.35;;;3.20;;
58384;SDS011;44185;47.844;8.966;2022-08-04T08:24:20;4.93;;;3.10;;
58384;SDS011;44185;47.844;8.966;2022-08-04T08:26:46;6.00;;;3.45;;
58384;SDS011;44185;47.844;8.966;2022-08-04T08:29:13;5.40;;;3.65;;
58384;SDS011;44185;47.844;8.966;2022-08-04T08:31:39;3.10;;;2.80;;
58384;SDS011;44185;47.844;8.966;2022-08-04T08:34:04;6.45;;;3.35;;
58384;SDS011;44185;47.844;8.966;2022-08-04T08:36:31;3.85;;;3.00;;
58384;SDS011;44185;47.844;8.966;2022-08-04T08:41:36;3.85;;;3.00;;
58384;SDS011;44185;47.844;8.966;2022-08-04T08:44:32;4.22;;;3.30;;
58384;SDS011;44185;47.844;8.966;2022-08-04T08:47:15;6.53;;;3.40;;
58384;SDS011;44185;47.844;8.966;2022-08-04T08:49:58;5.50;;;3.27;;
58384;SDS011;44185;47.844;8.966;2022-08-04T08:52:37;6.10;;;3.50;;
58384;SDS011;44185;47.844;8.966;2022-08-04T08:55:21;8.32;;;3.50;;
58384;SDS011;44185;47.844;8.966;2022-08-04T08:58:02;4.95;;;3.28;;
58384;SDS011;44185;47.844;8.966;2022-08-04T09:00:40;8.55;;;3.80;;
58384;SDS011;44185;47.844;8.966;2022-08-04T09:06:26;4.00;;;3.60;;
58384;SDS011;44185;47.844;8.966;2022-08-04T09:09:15;4.95;;;3.65;;
58384;SDS011;44185;47.844;8.966;2022-08-04T09:12:05;4.57;;;3.55;;
58384;SDS011;44185;47.844;8.966;2022-08-04T09:14:38;5.05;;;3.33;;
58384;SDS011;44185;47.844;8.966;2022-08-04T09:17:12;4.57;;;3.60;;
58384;SDS011;44185;47.844;8.966;2022-08-04T09:19:49;6.25;;;3.83;;
58384;SDS011;44185;47.844;8.966;2022-08-04T09:22:21;5.82;;;3.80;;
58384;SDS011;44185;47.844;8.966;2022-08-04T09:24:56;3.92;;;3.50;;
58384;SDS011;44185;47.844;8.966;2022-08-04T09:27:29;4.18;;;3.50;;
58384;SDS011;44185;47.844;8.966;2022-08-04T09:30:00;5.03;;;3.47;;
58384;SDS011;44185;47.844;8.966;2022-08-04T09:32:31;4.22;;;3.45;;
58384;SDS011;44185;47.844;8.966;2022-08-04T09:35:05;4.60;;;3.53;;
58384;SDS011;44185;47.844;8.966;2022-08-04T09:37:41;5.60;;;3.63;;
58384;SDS011;44185;47.844;8.966;2022-08-04T09:40:14;3.95;;;3.50;;
58384;SDS011;44185;47.844;8.966;2022-08-04T09:42:47;6.78;;;3.70;;
58384;SDS011;44185;47.844;8.966;2022-08-04T09:45:18;4.50;;;3.67;;
58384;SDS011;44185;47.844;8.966;2022-08-04T09:47:54;4.57;;;3.55;;
58384;SDS011;44185;47.844;8.966;2022-08-04T09:50:26;5.53;;;3.70;;
58384;SDS011;44185;47.844;8.966;2022-08-04T09:53:02;4.18;;;3.40;;
58384;SDS011;44185;47.844;8.966;2022-08-04T09:56:04;4.10;;;3.67;;
58384;SDS011;44185;47.844;8.966;2022-08-04T09:58:38;5.05;;;3.50;;
58384;SDS011;44185;47.844;8.966;2022-08-04T10:01:12;5.55;;;3.63;;
58384;SDS011;44185;47.844;8.966;2022-08-04T10:03:42;7.25;;;3.75;;
58384;SDS011;44185;47.844;8.966;2022-08-04T10:06:14;5.95;;;3.60;;
58384;SDS011;44185;47.844;8.966;2022-08-04T10:08:59;7.22;;;3.42;;
58384;SDS011;44185;47.844;8.966;2022-08-04T10:11:36;5.30;;;3.38;;
58384;SDS011;44185;47.844;8.966;2022-08-04T10:14:19;6.18;;;3.70;;
58384;SDS011;44185;47.844;8.966;2022-08-04T10:17:05;5.05;;;3.80;;
58384;SDS011;44185;47.844;8.966;2022-08-04T10:19:45;6.22;;;3.60;;
58384;SDS011;44185;47.844;8.966;2022-08-04T10:22:18;4.60;;;3.50;;
58384;SDS011;44185;47.844;8.966;2022-08-04T10:24:52;7.85;;;3.85;;
58384;SDS011;44185;47.844;8.966;2022-08-04T10:27:27;5.47;;;3.40;;
58384;SDS011;44185;47.844;8.966;2022-08-04T10:29:59;4.20;;;3.65;;
58384;SDS011;44185;47.844;8.966;2022-08-04T10:32:31;4.82;;;3.45;;
58384;SDS011;44185;47.844;8.966;2022-08-04T10:35:04;5.00;;;3.78;;
58384;SDS011;44185;47.844;8.966;2022-08-04T10:37:35;7.60;;;3.47;;
58384;SDS011;44185;47.844;8.966;2022-08-04T10:40:08;4.40;;;3.63;;
58384;SDS011;44185;47.844;8.966;2022-08-04T10:42:37;5.63;;;3.60;;
58384;SDS011;44185;47.844;8.966;2022-08-04T10:45:12;7.82;;;3.75;;
58384;SDS011;44185;47.844;8.966;2022-08-04T10:47:42;5.50;;;3.53;;
58384;SDS011;44185;47.844;8.966;2022-08-04T10:50:24;5.38;;;3.60;;
58384;SDS011;44185;47.844;8.966;2022-08-04T10:55:22;3.80;;;3.20;;
58384;SDS011;44185;47.844;8.966;2022-08-04T10:57:56;4.40;;;3.63;;
58384;SDS011;44185;47.844;8.966;2022-08-04T11:00:25;3.92;;;3.30;;
58384;SDS011;44185;47.844;8.966;2022-08-04T11:02:52;4.50;;;3.47;;
58384;SDS011;44185;47.844;8.966;2022-08-04T11:05:26;5.68;;;3.55;;
58384;SDS011;44185;47.844;8.966;2022-08-04T11:07:58;4.85;;;3.40;;
58384;SDS011;44185;47.844;8.966;2022-08-04T11:10:27;3.50;;;3.20;;
58384;SDS011;44185;47.844;8.966;2022-08-04T11:12:58;5.22;;;3.47;;
58384;SDS011;44185;47.844;8.966;2022-08-04T11:15:29;4.57;;;3.33;;
58384;SDS011;44185;47.844;8.966;2022-08-04T11:18:01;5.18;;;3.28;;
58384;SDS011;44185;47.844;8.966;2022-08-04T11:20:35;3.40;;;3.10;;
58384;SDS011;44185;47.844;8.966;2022-08-04T11:23:07;3.90;;;3.17;;
58384;SDS011;44185;47.844;8.966;2022-08-04T11:25:35;4.70;;;3.25;;
58384;SDS011;44185;47.844;8.966;2022-08-04T11:28:10;3.40;;;3.10;;
58384;SDS011;44185;47.844;8.966;2022-08-04T11:30:42;3.33;;;2.85;;
58384;SDS011;44185;47.844;8.966;2022-08-04T11:33:20;4.18;;;3.10;;
58384;SDS011;44185;47.844;8.966;2022-08-04T11:35:54;3.92;;;3.10;;
58384;SDS011;44185;47.844;8.966;2022-08-04T11:38:27;5.50;;;3.13;;
58384;SDS011;44185;47.844;8.966;2022-08-04T11:40:57;4.55;;;3.00;;
58384;SDS011;44185;47.844;8.966;2022-08-04T11:43:32;5.03;;;3.15;;
58384;SDS011;44185;47.844;8.966;2022-08-04T11:46:02;3.38;;;3.00;;
58384;SDS011;44185;47.844;8.966;2022-08-04T11:48:34;4.95;;;3.08;;
58384;SDS011;44185;47.844;8.966;2022-08-04T11:51:03;5.10;;;2.95;;
58384;SDS011;44185;47.844;8.966;2022-08-04T11:53:30;4.10;;;3.10;;
58384;SDS011;44185;47.844;8.966;2022-08-04T11:55:59;3.27;;;2.97;;
58384;SDS011;44185;47.844;8.966;2022-08-04T11:58:27;3.30;;;3.00;;
58384;SDS011;44185;47.844;8.966;2022-08-04T12:00:55;4.18;;;2.83;;
58384;SDS011;44185;47.844;8.966;2022-08-04T12:03:31;5.63;;;2.88;;
58384;SDS011;44185;47.844;8.966;2022-08-04T12:06:08;3.35;;;3.05;;
58384;SDS011;44185;47.844;8.966;2022-08-04T12:11:37;3.65;;;2.90;;
58384;SDS011;44185;47.844;8.966;2022-08-04T12:14:16;3.10;;;2.80;;
58384;SDS011;44185;47.844;8.966;2022-08-04T12:17:04;3.33;;;2.53;;
58384;SDS011;44185;47.844;8.966;2022-08-04T12:19:32;4.15;;;2.88;;
58384;SDS011;44185;47.844;8.966;2022-08-04T12:22:10;4.57;;;2.83;;
58384;SDS011;44185;47.844;8.966;2022-08-04T12:24:40;5.10;;;2.90;;
58384;SDS011;44185;47.844;8.966;2022-08-04T12:27:10;3.10;;;2.67;;
58384;SDS011;44185;47.844;8.966;2022-08-04T12:29:40;3.88;;;2.60;;
58384;SDS011;44185;47.844;8.966;2022-08-04T12:32:06;2.85;;;2.60;;
58384;SDS011;44185;47.844;8.966;2022-08-04T12:34:44;3.95;;;2.60;;
58384;SDS011;44185;47.844;8.966;2022-08-04T12:37:16;3.35;;;2.67;;
58384;SDS011;44185;47.844;8.966;2022-08-04T12:39:53;3.63;;;2.70;;
58384;SDS011;44185;47.844;8.966;2022-08-04T12:42:26;2.92;;;2.72;;
58384;SDS011;44185;47.844;8.966;2022-08-04T12:44:58;3.10;;;2.63;;
58384;SDS011;44185;47.844;8.966;2022-08-04T12:47:31;4.45;;;2.97;;
58384;SDS011;44185;47.844;8.966;2022-08-04T12:50:00;3.88;;;2.70;;
58384;SDS011;44185;47.844;8.966;2022-08-04T12:52:29;3.83;;;2.80;;
58384;SDS011;44185;47.844;8.966;2022-08-04T12:57:23;2.88;;;2.58;;
58384;SDS011;44185;47.844;8.966;2022-08-04T12:59:49;3.33;;;2.40;;
58384;SDS011;44185;47.844;8.966;2022-08-04T13:02:15;3.67;;;2.33;;
58384;SDS011;44185;47.844;8.966;2022-08-04T13:04:47;2.95;;;2.50;;
58384;SDS011;44185;47.844;8.966;2022-08-04T13:07:14;4.28;;;2.60;;
58384;SDS011;44185;47.844;8.966;2022-08-04T13:09:50;5.53;;;2.95;;
58384;SDS011;44185;47.844;8.966;2022-08-04T13:12:17;4.85;;;3.08;;
58384;SDS011;44185;47.844;8.966;2022-08-04T13:14:47;3.70;;;2.53;;
58384;SDS011;44185;47.844;8.966;2022-08-04T13:17:15;4.00;;;2.53;;
58384;SDS011;44185;47.844;8.966;2022-08-04T13:19:44;3.78;;;2.55;;
58384;SDS011;44185;47.844;8.966;2022-08-04T13:22:11;3.65;;;2.70;;
58384;SDS011;44185;47.844;8.966;2022-08-04T13:24:37;3.28;;;2.60;;
58384;SDS011;44185;47.844;8.966;2022-08-04T13:27:06;3.33;;;2.45;;
58384;SDS011;44185;47.844;8.966;2022-08-04T13:29:35;5.10;;;2.63;;
58384;SDS011;44185;47.844;8.966;2022-08-04T13:32:04;6.40;;;2.45;;
58384;SDS011;44185;47.844;8.966;2022-08-04T13:34:30;2.50;;;2.30;;
58384;SDS011;44185;47.844;8.966;2022-08-04T13:36:57;4.40;;;2.70;;
58384;SDS011;44185;47.844;8.966;2022-08-04T13:39:23;3.13;;;2.58;;
58384;SDS011;44185;47.844;8.966;2022-08-04T13:41:51;3.67;;;2.50;;
58384;SDS011;44185;47.844;8.966;2022-08-04T13:44:24;3.53;;;2.58;;
58384;SDS011;44185;47.844;8.966;2022-08-04T13:46:54;3.25;;;2.55;;
58384;SDS011;44185;47.844;8.966;2022-08-04T13:49:22;2.60;;;2.40;;
58384;SDS011;44185;47.844;8.966;2022-08-04T13:51:48;4.78;;;2.65;;
58384;SDS011;44185;47.844;8.966;2022-08-04T13:54:16;2.73;;;2.50;;
58384;SDS011;44185;47.844;8.966;2022-08-04T13:56:44;2.60;;;2.40;;
58384;SDS011;44185;47.844;8.966;2022-08-04T14:01:42;2.10;;;2.00;;
58384;SDS011;44185;47.844;8.966;2022-08-04T14:04:11;3.60;;;2.33;;
58384;SDS011;44185;47.844;8.966;2022-08-04T14:06:47;2.70;;;2.50;;
58384;SDS011;44185;47.844;8.966;2022-08-04T14:09:15;2.80;;;2.30;;
58384;SDS011;44185;47.844;8.966;2022-08-04T14:11:42;2.30;;;2.10;;
58384;SDS011;44185;47.844;8.966;2022-08-04T14:14:12;2.15;;;1.92;;
58384;SDS011;44185;47.844;8.966;2022-08-04T14:16:38;4.72;;;2.30;;
58384;SDS011;44185;47.844;8.966;2022-08-04T14:19:20;2.58;;;2.20;;
58384;SDS011;44185;47.844;8.966;2022-08-04T14:21:46;3.30;;;2.53;;
58384;SDS011;44185;47.844;8.966;2022-08-04T14:24:11;2.45;;;2.22;;
58384;SDS011;44185;47.844;8.966;2022-08-04T14:26:47;2.03;;;1.92;;
58384;SDS011;44185;47.844;8.966;2022-08-04T14:29:13;5.05;;;2.38;;
58384;SDS011;44185;47.844;8.966;2022-08-04T14:31:40;1.98;;;1.83;;
58384;SDS011;44185;47.844;8.966;2022-08-04T14:34:07;2.20;;;2.10;;
58384;SDS011;44185;47.844;8.966;2022-08-04T14:36:39;2.40;;;2.20;;
58384;SDS011;44185;47.844;8.966;2022-08-04T14:39:06;2.28;;;2.10;;
58384;SDS011;44185;47.844;8.966;2022-08-04T14:41:42;2.63;;;2.20;;
58384;SDS011;44185;47.844;8.966;2022-08-04T14:44:09;2.47;;;2.20;;
58384;SDS011;44185;47.844;8.966;2022-08-04T14:46:34;5.03;;;2.20;;
58384;SDS011;44185;47.844;8.966;2022-08-04T14:49:15;2.15;;;2.05;;
58384;SDS011;44185;47.844;8.966;2022-08-04T14:51:41;3.50;;;2.50;;
58384;SDS011;44185;47.844;8.966;2022-08-04T14:54:10;3.40;;;1.70;;
58384;SDS011;44185;47.844;8.966;2022-08-04T14:56:38;2.40;;;1.65;;
58384;SDS011;44185;47.844;8.966;2022-08-04T14:59:04;1.75;;;1.65;;
58384;SDS011;44185;47.844;8.966;2022-08-04T15:01:35;2.22;;;1.85;;
58384;SDS011;44185;47.844;8.966;2022-08-04T15:04:02;2.85;;;1.90;;
58384;SDS011;44185;47.844;8.966;2022-08-04T15:06:31;2.17;;;2.05;;
58384;SDS011;44185;47.844;8.966;2022-08-04T15:08:58;3.63;;;2.30;;
58384;SDS011;44185;47.844;8.966;2022-08-04T15:11:26;2.72;;;1.90;;
58384;SDS011;44185;47.844;8.966;2022-08-04T15:13:52;2.10;;;2.00;;
58384;SDS011;44185;47.844;8.966;2022-08-04T15:16:19;2.30;;;2.10;;
58384;SDS011;44185;47.844;8.966;2022-08-04T15:18:45;2.70;;;2.00;;
58384;SDS011;44185;47.844;8.966;2022-08-04T15:21:10;3.53;;;1.98;;
58384;SDS011;44185;47.844;8.966;2022-08-04T15:23:39;1.77;;;1.67;;
58384;SDS011;44185;47.844;8.966;2022-08-04T15:26:06;2.20;;;1.98;;
58384;SDS011;44185;47.844;8.966;2022-08-04T15:28:35;2.63;;;2.10;;
58384;SDS011;44185;47.844;8.966;2022-08-04T15:31:04;2.10;;;2.00;;
58384;SDS011;44185;47.844;8.966;2022-08-04T15:33:32;2.10;;;2.00;;
58384;SDS011;44185;47.844;8.966;2022-08-04T15:36:08;2.00;;;1.90;;
58384;SDS011;44185;47.844;8.966;2022-08-04T15:38:37;2.33;;;1.65;;
58384;SDS011;44185;47.844;8.966;2022-08-04T15:41:09;1.75;;;1.65;;
58384;SDS011;44185;47.844;8.966;2022-08-04T15:43:45;2.22;;;1.75;;
58384;SDS011;44185;47.844;8.966;2022-08-04T15:46:25;2.55;;;2.35;;
58384;SDS011;44185;47.844;8.966;2022-08-04T15:49:23;2.93;;;2.10;;
58384;SDS011;44185;47.844;8.966;2022-08-04T15:51:55;3.25;;;2.28;;
58384;SDS011;44185;47.844;8.966;2022-08-04T15:54:24;2.15;;;2.05;;
58384;SDS011;44185;47.844;8.966;2022-08-04T15:56:50;3.63;;;2.05;;
58384;SDS011;44185;47.844;8.966;2022-08-04T15:59:16;1.75;;;1.65;;
58384;SDS011;44185;47.844;8.966;2022-08-04T16:02:40;3.37;;;2.10;;
58384;SDS011;44185;47.844;8.966;2022-08-04T16:07:58;10.95;;;2.50;;
58384;SDS011;44185;47.844;8.966;2022-08-04T16:10:35;3.85;;;2.50;;